KMIA/MIA METAR and TAF weather

Enter ICAO airport designator
Station Type Date Time Source
KMIA METAR 2020/01/23 05:53 UTC NOAA

KMIA 230553Z 33005KT 4SM BR OVC005 14/12 A3004 RMK AO2 RAB14E25 SLP172 P0000 60000 T01440122 10156 20139 58003


Station Type Date Time Source
KMIA Decoded METAR 2020/01/23 05:53 UTC NOAA

MIAMI INTERNATIONAL AIRPORT , FL, United States (KMIA) 25-47N 080-19W 8M
Jan 23, 2020 - 12:53 AM EST / 2020.01.23 0553 UTC
Wind: from the NNW (330 degrees) at 6 MPH (5 KT):0
Visibility: 4 mile(s):0
Sky conditions: overcast
Weather: mist
Precipitation last hour: A trace
Temperature: 57.9 F (14.4 C)
Dew Point: 54.0 F (12.2 C)
Relative Humidity: 86%
Pressure (altimeter): 30.04 in. Hg (1017 hPa)
Pressure tendency: 0.01 inches (0.3 hPa) lower than three hours ago
ob: KMIA 230553Z 33005KT 4SM BR OVC005 14/12 A3004 RMK AO2 RAB14E25 SLP172 P0000 60000 T01440122 10156 20139 58003
cycle: 6

Station Type Date Time Source
KMIA TAF 2020/01/23 06:24 UTC NOAA

TAF KMIA 230523Z 2306/2412 31007KT P6SM VCSH SCT005 BKN050
TEMPO 2306/2310 5SM -RA BKN005 OVC030
FM231500 10011KT P6SM SCT035 BKN050
FM240000 10005KT P6SM SCT035 SCT050

Example: see airport list